sensor_id;sensor_type;location;lat;lon;timestamp;pressure;altitude;pressure_sealevel;temperature;humidity
7930;BME280;4010;42.698;23.124;2023-05-23T00:00:12;52853.47;;;-140.64;100.00
7930;BME280;4010;42.698;23.124;2023-05-23T00:02:39;52595.00;;;-140.64;100.00
7930;BME280;4010;42.698;23.124;2023-05-23T00:05:07;51819.75;;;-140.64;100.00
7930;BME280;4010;42.698;23.124;2023-05-23T00:07:34;52078.13;;;-140.64;100.00
7930;BME280;4010;42.698;23.124;2023-05-23T00:10:00;51819.75;;;-140.64;100.00
7930;BME280;4010;42.698;23.124;2023-05-23T00:12:27;51044.66;;;-140.64;100.00
7930;BME280;4010;42.698;23.124;2023-05-23T00:14:54;50786.34;;;-140.64;100.00
7930;BME280;4010;42.698;23.124;2023-05-23T00:17:23;50786.34;;;-140.64;100.00
7930;BME280;4010;42.698;23.124;2023-05-23T00:19:50;49236.81;;;-140.64;100.00
7930;BME280;4010;42.698;23.124;2023-05-23T00:22:17;49236.81;;;-140.64;100.00
7930;BME280;4010;42.698;23.124;2023-05-23T00:24:43;48978.63;;;-140.64;100.00
7930;BME280;4010;42.698;23.124;2023-05-23T00:27:10;50269.75;;;-140.64;100.00
7930;BME280;4010;42.698;23.124;2023-05-23T00:29:37;54663.25;;;-140.64;100.00
7930;BME280;4010;42.698;23.124;2023-05-23T00:32:04;60357.41;;;-140.64;100.00
7930;BME280;4010;42.698;23.124;2023-05-23T00:34:32;60357.41;;;-140.64;100.00
7930;BME280;4010;42.698;23.124;2023-05-23T00:36:58;59580.34;;;-140.64;100.00
7930;BME280;4010;42.698;23.124;2023-05-23T00:39:26;58544.59;;;-140.64;100.00
7930;BME280;4010;42.698;23.124;2023-05-23T00:41:53;55180.50;;;-140.64;100.00
7930;BME280;4010;42.698;23.124;2023-05-23T00:44:20;52853.47;;;-140.64;100.00
7930;BME280;4010;42.698;23.124;2023-05-23T00:46:50;52595.00;;;-140.64;100.00
7930;BME280;4010;42.698;23.124;2023-05-23T00:49:17;51044.66;;;-140.64;100.00
7930;BME280;4010;42.698;23.124;2023-05-23T00:51:45;52078.13;;;-140.64;100.00
7930;BME280;4010;42.698;23.124;2023-05-23T00:54:14;52336.56;;;-140.64;100.00
7930;BME280;4010;42.698;23.124;2023-05-23T00:56:43;52595.00;;;-140.64;100.00
7930;BME280;4010;42.698;23.124;2023-05-23T00:59:11;56215.25;;;-140.64;100.00
7930;BME280;4010;42.698;23.124;2023-05-23T01:01:39;58026.81;;;-140.64;100.00
7930;BME280;4010;42.698;23.124;2023-05-23T01:04:06;57767.97;;;-140.64;100.00
7930;BME280;4010;42.698;23.124;2023-05-23T01:06:32;57767.97;;;-140.64;100.00
7930;BME280;4010;42.698;23.124;2023-05-23T01:09:02;57250.31;;;-140.64;100.00
7930;BME280;4010;42.698;23.124;2023-05-23T01:11:34;55956.53;;;-140.64;100.00
7930;BME280;4010;42.698;23.124;2023-05-23T01:14:09;54663.25;;;-140.64;100.00
7930;BME280;4010;42.698;23.124;2023-05-23T01:16:41;55439.16;;;-140.64;100.00
7930;BME280;4010;42.698;23.124;2023-05-23T01:19:30;56215.25;;;-140.64;100.00
7930;BME280;4010;42.698;23.124;2023-05-23T01:22:10;60098.38;;;-140.64;100.00
7930;BME280;4010;42.698;23.124;2023-05-23T01:24:44;61134.59;;;-140.64;100.00
7930;BME280;4010;42.698;23.124;2023-05-23T01:27:22;60098.38;;;-140.64;100.00
7930;BME280;4010;42.698;23.124;2023-05-23T01:29:53;59062.44;;;-140.64;100.00
7930;BME280;4010;42.698;23.124;2023-05-23T01:32:24;58803.50;;;-140.64;100.00
7930;BME280;4010;42.698;23.124;2023-05-23T01:34:52;57767.97;;;-140.64;100.00
7930;BME280;4010;42.698;23.124;2023-05-23T01:37:19;56991.50;;;-140.64;100.00
7930;BME280;4010;42.698;23.124;2023-05-23T01:39:46;56732.72;;;-140.64;100.00
7930;BME280;4010;42.698;23.124;2023-05-23T01:42:13;56473.97;;;-140.64;100.00
7930;BME280;4010;42.698;23.124;2023-05-23T01:44:40;56473.97;;;-140.64;100.00
7930;BME280;4010;42.698;23.124;2023-05-23T01:47:08;55697.81;;;-140.64;100.00
7930;BME280;4010;42.698;23.124;2023-05-23T01:49:36;55697.81;;;-140.64;100.00
7930;BME280;4010;42.698;23.124;2023-05-23T01:52:04;53887.50;;;-140.64;100.00
7930;BME280;4010;42.698;23.124;2023-05-23T01:54:34;52853.47;;;-140.64;100.00
7930;BME280;4010;42.698;23.124;2023-05-23T01:57:02;50786.34;;;-140.64;100.00
7930;BME280;4010;42.698;23.124;2023-05-23T01:59:28;48720.47;;;-140.64;100.00
7930;BME280;4010;42.698;23.124;2023-05-23T02:01:55;48204.19;;;-140.64;100.00
7930;BME280;4010;42.698;23.124;2023-05-23T02:04:23;49753.25;;;-140.64;100.00
7930;BME280;4010;42.698;23.124;2023-05-23T02:06:50;51044.66;;;-140.64;100.00
7930;BME280;4010;42.698;23.124;2023-05-23T02:09:16;51044.66;;;-140.64;100.00
7930;BME280;4010;42.698;23.124;2023-05-23T02:11:43;51819.75;;;-140.64;100.00
7930;BME280;4010;42.698;23.124;2023-05-23T02:14:10;52595.00;;;-140.64;100.00
7930;BME280;4010;42.698;23.124;2023-05-23T02:16:37;53111.94;;;-140.64;100.00
7930;BME280;4010;42.698;23.124;2023-05-23T02:19:03;52595.00;;;-140.64;100.00
7930;BME280;4010;42.698;23.124;2023-05-23T02:21:32;57767.97;;;-140.64;100.00
7930;BME280;4010;42.698;23.124;2023-05-23T02:23:58;57767.97;;;-140.64;100.00
7930;BME280;4010;42.698;23.124;2023-05-23T02:26:25;56732.72;;;-140.64;100.00
7930;BME280;4010;42.698;23.124;2023-05-23T02:28:52;56473.97;;;-140.64;100.00
7930;BME280;4010;42.698;23.124;2023-05-23T02:31:19;57509.13;;;-140.64;100.00
7930;BME280;4010;42.698;23.124;2023-05-23T02:33:45;56473.97;;;-140.64;100.00
7930;BME280;4010;42.698;23.124;2023-05-23T02:36:12;56991.50;;;-140.64;100.00
7930;BME280;4010;42.698;23.124;2023-05-23T02:38:40;57767.97;;;-140.64;100.00
7930;BME280;4010;42.698;23.124;2023-05-23T02:41:07;57250.31;;;-140.64;100.00
7930;BME280;4010;42.698;23.124;2023-05-23T02:43:33;56991.50;;;-140.64;100.00
7930;BME280;4010;42.698;23.124;2023-05-23T02:46:00;58285.69;;;-140.64;100.00
7930;BME280;4010;42.698;23.124;2023-05-23T02:48:27;59062.44;;;-140.64;100.00
7930;BME280;4010;42.698;23.124;2023-05-23T02:50:53;58544.59;;;-140.64;100.00
7930;BME280;4010;42.698;23.124;2023-05-23T02:53:20;57250.31;;;-140.64;100.00
7930;BME280;4010;42.698;23.124;2023-05-23T02:55:48;56473.97;;;-140.64;100.00
7930;BME280;4010;42.698;23.124;2023-05-23T02:58:15;55956.53;;;-140.64;100.00
7930;BME280;4010;42.698;23.124;2023-05-23T03:00:42;57250.31;;;-140.64;100.00
7930;BME280;4010;42.698;23.124;2023-05-23T03:03:09;57509.13;;;-140.64;100.00
7930;BME280;4010;42.698;23.124;2023-05-23T03:05:36;58285.69;;;-140.64;100.00
7930;BME280;4010;42.698;23.124;2023-05-23T03:08:02;58026.81;;;-140.64;100.00
7930;BME280;4010;42.698;23.124;2023-05-23T03:10:29;57509.13;;;-140.64;100.00
7930;BME280;4010;42.698;23.124;2023-05-23T03:12:57;56991.50;;;-140.64;100.00
7930;BME280;4010;42.698;23.124;2023-05-23T03:15:24;55439.16;;;-140.64;100.00
7930;BME280;4010;42.698;23.124;2023-05-23T03:17:51;56991.50;;;-140.64;100.00
7930;BME280;4010;42.698;23.124;2023-05-23T03:20:17;56215.25;;;-140.64;100.00
7930;BME280;4010;42.698;23.124;2023-05-23T03:22:44;50011.50;;;-140.64;100.00
7930;BME280;4010;42.698;23.124;2023-05-23T03:25:11;37380.78;;;-140.64;100.00
7930;BME280;4010;42.698;23.124;2023-05-23T03:27:37;29671.09;;;-140.64;100.00
7930;BME280;4010;42.698;23.124;2023-05-23T03:30:06;23259.94;;;-140.64;100.00
7930;BME280;4010;42.698;23.124;2023-05-23T03:32:33;19931.00;;;-140.64;100.00
7930;BME280;4010;42.698;23.124;2023-05-23T03:35:00;18395.69;;;-140.64;100.00
7930;BME280;4010;42.698;23.124;2023-05-23T03:37:26;17116.81;;;-140.64;100.00
7930;BME280;4010;42.698;23.124;2023-05-23T03:39:53;35580.28;;;-140.64;100.00
7930;BME280;4010;42.698;23.124;2023-05-23T03:42:20;118349.16;;;-140.64;100.00
7930;BME280;4010;42.698;23.124;2023-05-23T03:44:46;118349.16;;;-140.64;100.00
7930;BME280;4010;42.698;23.124;2023-05-23T03:47:14;118349.16;;;-140.64;100.00
7930;BME280;4010;42.698;23.124;2023-05-23T03:49:41;118349.16;;;-140.64;100.00
7930;BME280;4010;42.698;23.124;2023-05-23T03:52:09;118349.16;;;-140.64;95.76
7930;BME280;4010;42.698;23.124;2023-05-23T03:54:36;118349.16;;;-140.64;92.16
7930;BME280;4010;42.698;23.124;2023-05-23T03:57:03;118349.16;;;-140.64;83.64
7930;BME280;4010;42.698;23.124;2023-05-23T03:59:29;118349.16;;;-140.64;78.99
7930;BME280;4010;42.698;23.124;2023-05-23T04:01:56;118349.16;;;-140.64;74.09
7930;BME280;4010;42.698;23.124;2023-05-23T04:04:25;118349.16;;;-140.64;69.16
7930;BME280;4010;42.698;23.124;2023-05-23T04:06:52;118349.16;;;-140.64;66.96
7930;BME280;4010;42.698;23.124;2023-05-23T04:09:19;118349.16;;;-140.64;65.11
7930;BME280;4010;42.698;23.124;2023-05-23T04:11:45;118349.16;;;-140.64;62.13
7930;BME280;4010;42.698;23.124;2023-05-23T04:14:12;118349.16;;;-140.64;60.61
7930;BME280;4010;42.698;23.124;2023-05-23T04:16:39;118349.16;;;-140.64;61.73
7930;BME280;4010;42.698;23.124;2023-05-23T04:19:06;118349.16;;;-140.64;61.40
7930;BME280;4010;42.698;23.124;2023-05-23T04:21:35;118349.16;;;-140.64;59.37
7930;BME280;4010;42.698;23.124;2023-05-23T04:24:01;118349.16;;;-140.64;55.89
7930;BME280;4010;42.698;23.124;2023-05-23T04:26:28;118349.16;;;-140.64;56.06
7930;BME280;4010;42.698;23.124;2023-05-23T04:28:55;118349.16;;;-140.64;55.16
7930;BME280;4010;42.698;23.124;2023-05-23T04:31:22;118349.16;;;-140.64;54.67
7930;BME280;4010;42.698;23.124;2023-05-23T04:33:48;118349.16;;;-140.64;52.39
7930;BME280;4010;42.698;23.124;2023-05-23T04:36:16;118349.16;;;-140.64;51.51
7930;BME280;4010;42.698;23.124;2023-05-23T04:38:44;118349.16;;;-140.64;49.39
7930;BME280;4010;42.698;23.124;2023-05-23T04:41:10;118349.16;;;-140.64;49.37
7930;BME280;4010;42.698;23.124;2023-05-23T04:43:37;118349.16;;;-140.64;50.45
7930;BME280;4010;42.698;23.124;2023-05-23T04:46:07;118349.16;;;-140.64;48.17
7930;BME280;4010;42.698;23.124;2023-05-23T04:48:34;118349.16;;;-140.64;48.59
7930;BME280;4010;42.698;23.124;2023-05-23T04:51:01;118349.16;;;-140.64;52.26
7930;BME280;4010;42.698;23.124;2023-05-23T04:53:32;118349.16;;;-140.64;53.41
7930;BME280;4010;42.698;23.124;2023-05-23T04:56:00;118349.16;;;-140.64;50.41
7930;BME280;4010;42.698;23.124;2023-05-23T04:58:27;118349.16;;;-140.64;50.79
7930;BME280;4010;42.698;23.124;2023-05-23T05:00:53;118349.16;;;-140.64;50.70
7930;BME280;4010;42.698;23.124;2023-05-23T05:03:20;118349.16;;;-140.64;50.05
7930;BME280;4010;42.698;23.124;2023-05-23T05:05:49;118349.16;;;-140.64;48.88
7930;BME280;4010;42.698;23.124;2023-05-23T05:08:16;118349.16;;;-140.64;47.54
7930;BME280;4010;42.698;23.124;2023-05-23T05:10:44;118349.16;;;-140.64;47.62
7930;BME280;4010;42.698;23.124;2023-05-23T05:13:12;118349.16;;;-140.64;49.16
7930;BME280;4010;42.698;23.124;2023-05-23T05:15:39;118349.16;;;-140.64;51.69
7930;BME280;4010;42.698;23.124;2023-05-23T05:18:06;118349.16;;;-140.64;50.62
7930;BME280;4010;42.698;23.124;2023-05-23T05:20:32;118349.16;;;-140.64;49.68
7930;BME280;4010;42.698;23.124;2023-05-23T05:22:59;118349.16;;;-140.64;53.47
7930;BME280;4010;42.698;23.124;2023-05-23T05:25:25;118349.16;;;-140.64;50.47
7930;BME280;4010;42.698;23.124;2023-05-23T05:27:56;118349.16;;;-140.64;52.78
7930;BME280;4010;42.698;23.124;2023-05-23T05:30:24;118349.16;;;-140.64;55.30
7930;BME280;4010;42.698;23.124;2023-05-23T05:32:50;118349.16;;;-140.64;54.46
7930;BME280;4010;42.698;23.124;2023-05-23T05:35:17;118349.16;;;-140.64;57.20
7930;BME280;4010;42.698;23.124;2023-05-23T05:37:44;118349.16;;;-140.64;51.26
7930;BME280;4010;42.698;23.124;2023-05-23T05:40:11;118349.16;;;-140.64;51.66
7930;BME280;4010;42.698;23.124;2023-05-23T05:42:37;118349.16;;;-140.64;49.42
7930;BME280;4010;42.698;23.124;2023-05-23T05:45:05;118349.16;;;-140.64;48.41
7930;BME280;4010;42.698;23.124;2023-05-23T05:47:34;118349.16;;;-140.64;47.28
7930;BME280;4010;42.698;23.124;2023-05-23T05:50:01;118349.16;;;-140.64;46.90
7930;BME280;4010;42.698;23.124;2023-05-23T05:52:28;118349.16;;;-140.64;47.96
7930;BME280;4010;42.698;23.124;2023-05-23T05:54:55;118349.16;;;-140.64;48.38
7930;BME280;4010;42.698;23.124;2023-05-23T05:57:22;118349.16;;;-140.64;50.75
7930;BME280;4010;42.698;23.124;2023-05-23T05:59:48;118349.16;;;-140.64;48.74
7930;BME280;4010;42.698;23.124;2023-05-23T06:02:15;118349.16;;;-140.64;52.61
7930;BME280;4010;42.698;23.124;2023-05-23T06:04:43;118349.16;;;-140.64;52.35
7930;BME280;4010;42.698;23.124;2023-05-23T06:07:10;118349.16;;;-140.64;51.69
7930;BME280;4010;42.698;23.124;2023-05-23T06:09:36;118349.16;;;-140.64;54.70
7930;BME280;4010;42.698;23.124;2023-05-23T06:12:03;118349.16;;;-140.64;53.22
7930;BME280;4010;42.698;23.124;2023-05-23T06:14:30;118349.16;;;-140.64;53.72
7930;BME280;4010;42.698;23.124;2023-05-23T06:16:57;118349.16;;;-140.64;52.14
7930;BME280;4010;42.698;23.124;2023-05-23T06:19:24;118349.16;;;-140.64;51.01
7930;BME280;4010;42.698;23.124;2023-05-23T06:21:52;118349.16;;;-140.64;51.16
7930;BME280;4010;42.698;23.124;2023-05-23T06:24:18;118349.16;;;-140.64;53.54
7930;BME280;4010;42.698;23.124;2023-05-23T06:26:45;118349.16;;;-140.64;55.96
7930;BME280;4010;42.698;23.124;2023-05-23T06:29:12;118349.16;;;-140.64;52.26
7930;BME280;4010;42.698;23.124;2023-05-23T06:31:38;118349.16;;;-140.64;56.76
7930;BME280;4010;42.698;23.124;2023-05-23T06:34:05;118349.16;;;-140.64;57.22
7930;BME280;4010;42.698;23.124;2023-05-23T06:36:32;118349.16;;;-140.64;57.67
7930;BME280;4010;42.698;23.124;2023-05-23T06:39:00;118349.16;;;-140.64;59.18
7930;BME280;4010;42.698;23.124;2023-05-23T06:41:26;118349.16;;;-140.64;63.71
7930;BME280;4010;42.698;23.124;2023-05-23T06:43:53;118349.16;;;-140.64;66.21
7930;BME280;4010;42.698;23.124;2023-05-23T06:46:20;118349.16;;;-140.64;63.55
7930;BME280;4010;42.698;23.124;2023-05-23T06:48:46;118349.16;;;-140.64;58.92
7930;BME280;4010;42.698;23.124;2023-05-23T06:51:13;118349.16;;;-140.64;56.21
7930;BME280;4010;42.698;23.124;2023-05-23T06:53:40;118349.16;;;-140.64;52.05
7930;BME280;4010;42.698;23.124;2023-05-23T06:56:08;118349.16;;;-140.64;54.32
7930;BME280;4010;42.698;23.124;2023-05-23T06:58:34;118349.16;;;-140.64;55.50
7930;BME280;4010;42.698;23.124;2023-05-23T07:01:01;118349.16;;;-140.64;58.51
7930;BME280;4010;42.698;23.124;2023-05-23T07:03:28;118349.16;;;-140.64;57.90
7930;BME280;4010;42.698;23.124;2023-05-23T07:05:55;118349.16;;;-140.64;58.50
7930;BME280;4010;42.698;23.124;2023-05-23T07:08:22;118349.16;;;-140.64;60.38
7930;BME280;4010;42.698;23.124;2023-05-23T07:10:48;118349.16;;;-140.64;61.29
7930;BME280;4010;42.698;23.124;2023-05-23T07:13:16;118349.16;;;-140.64;69.40
7930;BME280;4010;42.698;23.124;2023-05-23T07:15:43;118349.16;;;-140.64;74.21
7930;BME280;4010;42.698;23.124;2023-05-23T07:18:09;118349.16;;;-140.64;73.28
7930;BME280;4010;42.698;23.124;2023-05-23T07:20:36;118349.16;;;-140.64;73.45
7930;BME280;4010;42.698;23.124;2023-05-23T07:23:03;118349.16;;;-140.64;73.47
7930;BME280;4010;42.698;23.124;2023-05-23T07:25:29;118349.16;;;-140.64;75.17
7930;BME280;4010;42.698;23.124;2023-05-23T07:27:56;118349.16;;;-140.64;80.92
7930;BME280;4010;42.698;23.124;2023-05-23T07:30:24;118349.16;;;-140.64;78.71
7930;BME280;4010;42.698;23.124;2023-05-23T07:32:51;118349.16;;;-140.64;76.21
7930;BME280;4010;42.698;23.124;2023-05-23T07:35:18;118349.16;;;-140.64;80.55
7930;BME280;4010;42.698;23.124;2023-05-23T07:37:48;118349.16;;;-140.64;79.79
7930;BME280;4010;42.698;23.124;2023-05-23T07:40:15;118349.16;;;-140.64;80.83
7930;BME280;4010;42.698;23.124;2023-05-23T07:42:41;118349.16;;;-140.64;84.13
7930;BME280;4010;42.698;23.124;2023-05-23T07:45:09;118349.16;;;-140.64;82.68
7930;BME280;4010;42.698;23.124;2023-05-23T07:47:37;118349.16;;;-140.64;79.60
7930;BME280;4010;42.698;23.124;2023-05-23T07:50:04;118349.16;;;-140.64;76.72
7930;BME280;4010;42.698;23.124;2023-05-23T07:52:31;118349.16;;;-140.64;80.49
7930;BME280;4010;42.698;23.124;2023-05-23T07:54:58;118349.16;;;-140.64;79.87
7930;BME280;4010;42.698;23.124;2023-05-23T07:57:25;118349.16;;;-140.64;80.69
7930;BME280;4010;42.698;23.124;2023-05-23T07:59:52;118349.16;;;-140.64;79.04
7930;BME280;4010;42.698;23.124;2023-05-23T08:02:19;118349.16;;;-140.64;84.62
7930;BME280;4010;42.698;23.124;2023-05-23T08:04:47;118349.16;;;-140.64;81.57
7930;BME280;4010;42.698;23.124;2023-05-23T08:07:14;118349.16;;;-140.64;79.88
7930;BME280;4010;42.698;23.124;2023-05-23T08:09:41;118349.16;;;-140.64;77.08
7930;BME280;4010;42.698;23.124;2023-05-23T08:12:08;118349.16;;;-140.64;83.62
7930;BME280;4010;42.698;23.124;2023-05-23T08:14:35;118349.16;;;-140.64;79.81
7930;BME280;4010;42.698;23.124;2023-05-23T08:17:02;118349.16;;;-140.64;81.73
7930;BME280;4010;42.698;23.124;2023-05-23T08:19:28;118349.16;;;-140.64;78.90
7930;BME280;4010;42.698;23.124;2023-05-23T08:21:56;118349.16;;;-140.64;78.79
7930;BME280;4010;42.698;23.124;2023-05-23T08:24:23;118349.16;;;-140.64;81.31
7930;BME280;4010;42.698;23.124;2023-05-23T08:26:50;118349.16;;;-140.64;86.26
7930;BME280;4010;42.698;23.124;2023-05-23T08:29:16;118349.16;;;-140.64;85.18
7930;BME280;4010;42.698;23.124;2023-05-23T08:31:43;118349.16;;;-140.64;80.95
7930;BME280;4010;42.698;23.124;2023-05-23T08:34:10;118349.16;;;-140.64;80.61
7930;BME280;4010;42.698;23.124;2023-05-23T08:36:38;118349.16;;;-140.64;82.68
7930;BME280;4010;42.698;23.124;2023-05-23T08:39:08;118349.16;;;-140.64;76.52
7930;BME280;4010;42.698;23.124;2023-05-23T08:41:35;118349.16;;;-140.64;83.85
7930;BME280;4010;42.698;23.124;2023-05-23T08:44:02;118349.16;;;-140.64;79.82
7930;BME280;4010;42.698;23.124;2023-05-23T08:46:28;118349.16;;;-140.64;72.84
7930;BME280;4010;42.698;23.124;2023-05-23T08:48:57;118349.16;;;-140.64;70.35
7930;BME280;4010;42.698;23.124;2023-05-23T08:51:26;118349.16;;;-140.64;74.38
7930;BME280;4010;42.698;23.124;2023-05-23T08:53:53;118349.16;;;-140.64;73.12
7930;BME280;4010;42.698;23.124;2023-05-23T08:56:22;118349.16;;;-140.64;74.75
7930;BME280;4010;42.698;23.124;2023-05-23T08:58:50;118349.16;;;-140.64;73.08
7930;BME280;4010;42.698;23.124;2023-05-23T09:01:17;118349.16;;;-140.64;67.85
7930;BME280;4010;42.698;23.124;2023-05-23T09:03:45;118349.16;;;-140.64;72.47
7930;BME280;4010;42.698;23.124;2023-05-23T09:06:14;118349.16;;;-140.64;77.52
7930;BME280;4010;42.698;23.124;2023-05-23T09:08:42;118349.16;;;-140.64;73.92
7930;BME280;4010;42.698;23.124;2023-05-23T09:11:10;118349.16;;;-140.64;64.15
7930;BME280;4010;42.698;23.124;2023-05-23T09:13:39;118349.16;;;-140.64;68.65
7930;BME280;4010;42.698;23.124;2023-05-23T09:16:08;118349.16;;;-140.64;66.96
7930;BME280;4010;42.698;23.124;2023-05-23T09:18:37;118349.16;;;-140.64;66.99
7930;BME280;4010;42.698;23.124;2023-05-23T09:21:04;118349.16;;;-140.64;68.88
7930;BME280;4010;42.698;23.124;2023-05-23T09:23:31;118349.16;;;-140.64;64.73
7930;BME280;4010;42.698;23.124;2023-05-23T09:26:01;118349.16;;;-140.64;62.27
7930;BME280;4010;42.698;23.124;2023-05-23T09:28:28;118349.16;;;-140.64;67.43
7930;BME280;4010;42.698;23.124;2023-05-23T09:30:59;118349.16;;;-140.64;64.97
7930;BME280;4010;42.698;23.124;2023-05-23T09:33:35;118349.16;;;-140.64;59.66
7930;BME280;4010;42.698;23.124;2023-05-23T09:36:03;118349.16;;;-140.64;62.14
7930;BME280;4010;42.698;23.124;2023-05-23T09:38:30;118349.16;;;-140.64;61.27
7930;BME280;4010;42.698;23.124;2023-05-23T09:40:58;118349.16;;;-140.64;58.90
7930;BME280;4010;42.698;23.124;2023-05-23T09:43:25;118349.16;;;-140.64;61.66
7930;BME280;4010;42.698;23.124;2023-05-23T09:45:52;118349.16;;;-140.64;59.77
7930;BME280;4010;42.698;23.124;2023-05-23T09:48:27;118349.16;;;-140.64;57.52
7930;BME280;4010;42.698;23.124;2023-05-23T09:50:53;118349.16;;;-140.64;56.28
7930;BME280;4010;42.698;23.124;2023-05-23T09:53:20;118349.16;;;-140.64;61.57
7930;BME280;4010;42.698;23.124;2023-05-23T09:55:49;118349.16;;;-140.64;62.59
7930;BME280;4010;42.698;23.124;2023-05-23T09:58:18;118349.16;;;-140.64;60.40
7930;BME280;4010;42.698;23.124;2023-05-23T10:00:46;118349.16;;;-140.64;53.77
7930;BME280;4010;42.698;23.124;2023-05-23T10:03:15;118349.16;;;-140.64;52.48
7930;BME280;4010;42.698;23.124;2023-05-23T10:05:46;118349.16;;;-140.64;53.59
7930;BME280;4010;42.698;23.124;2023-05-23T10:08:17;118349.16;;;-140.64;50.16
7930;BME280;4010;42.698;23.124;2023-05-23T10:11:29;118349.16;;;-140.64;50.35
7930;BME280;4010;42.698;23.124;2023-05-23T10:14:08;118349.16;;;-140.64;53.83
7930;BME280;4010;42.698;23.124;2023-05-23T10:16:39;118349.16;;;-140.64;52.48
7930;BME280;4010;42.698;23.124;2023-05-23T10:19:14;118349.16;;;-140.64;49.17
7930;BME280;4010;42.698;23.124;2023-05-23T10:21:49;118349.16;;;-140.64;50.13
7930;BME280;4010;42.698;23.124;2023-05-23T10:24:17;118349.16;;;-140.64;51.17
7930;BME280;4010;42.698;23.124;2023-05-23T10:26:44;118349.16;;;-140.64;50.65
7930;BME280;4010;42.698;23.124;2023-05-23T10:29:11;118349.16;;;-140.64;51.71
7930;BME280;4010;42.698;23.124;2023-05-23T10:31:38;118349.16;;;-140.64;48.47
7930;BME280;4010;42.698;23.124;2023-05-23T10:34:11;118349.16;;;-140.64;49.60
7930;BME280;4010;42.698;23.124;2023-05-23T10:36:47;118349.16;;;-140.64;49.58
7930;BME280;4010;42.698;23.124;2023-05-23T10:39:24;118349.16;;;-140.64;52.68
7930;BME280;4010;42.698;23.124;2023-05-23T10:41:57;118349.16;;;-140.64;51.11
7930;BME280;4010;42.698;23.124;2023-05-23T10:44:28;118349.16;;;-140.64;49.84
7930;BME280;4010;42.698;23.124;2023-05-23T10:46:56;118349.16;;;-140.64;53.00
7930;BME280;4010;42.698;23.124;2023-05-23T10:49:39;118349.16;;;-140.64;52.48
7930;BME280;4010;42.698;23.124;2023-05-23T10:52:09;118349.16;;;-140.64;55.55
7930;BME280;4010;42.698;23.124;2023-05-23T10:54:41;118349.16;;;-140.64;54.10
7930;BME280;4010;42.698;23.124;2023-05-23T10:57:09;118349.16;;;-140.64;50.38
7930;BME280;4010;42.698;23.124;2023-05-23T10:59:37;118349.16;;;-140.64;54.02
7930;BME280;4010;42.698;23.124;2023-05-23T11:02:09;118349.16;;;-140.64;55.71
7930;BME280;4010;42.698;23.124;2023-05-23T11:04:38;118349.16;;;-140.64;55.69
7930;BME280;4010;42.698;23.124;2023-05-23T11:07:05;118349.16;;;-140.64;60.00
7930;BME280;4010;42.698;23.124;2023-05-23T11:09:33;118349.16;;;-140.64;53.79
7930;BME280;4010;42.698;23.124;2023-05-23T11:12:01;118349.16;;;-140.64;54.70
7930;BME280;4010;42.698;23.124;2023-05-23T11:14:40;118349.16;;;-140.64;48.00
7930;BME280;4010;42.698;23.124;2023-05-23T11:17:18;118349.16;;;-140.64;54.72
7930;BME280;4010;42.698;23.124;2023-05-23T11:19:55;118349.16;;;-140.64;47.44
7930;BME280;4010;42.698;23.124;2023-05-23T11:22:26;118349.16;;;-140.64;46.89
7930;BME280;4010;42.698;23.124;2023-05-23T11:24:56;118349.16;;;-140.64;49.19
7930;BME280;4010;42.698;23.124;2023-05-23T11:27:26;118349.16;;;-140.64;47.34
7930;BME280;4010;42.698;23.124;2023-05-23T11:30:03;118349.16;;;-140.64;45.74
7930;BME280;4010;42.698;23.124;2023-05-23T11:32:32;118349.16;;;-140.64;45.15
7930;BME280;4010;42.698;23.124;2023-05-23T11:34:59;118349.16;;;-140.64;50.28
7930;BME280;4010;42.698;23.124;2023-05-23T11:37:27;118349.16;;;-140.64;46.00
7930;BME280;4010;42.698;23.124;2023-05-23T11:39:55;118349.16;;;-140.64;44.41
7930;BME280;4010;42.698;23.124;2023-05-23T11:42:22;118349.16;;;-140.64;49.19
7930;BME280;4010;42.698;23.124;2023-05-23T11:44:49;118349.16;;;-140.64;47.17
7930;BME280;4010;42.698;23.124;2023-05-23T11:47:16;118349.16;;;-140.64;45.47
7930;BME280;4010;42.698;23.124;2023-05-23T11:49:44;118349.16;;;-140.64;48.36
7930;BME280;4010;42.698;23.124;2023-05-23T11:52:12;118349.16;;;-140.64;48.45
7930;BME280;4010;42.698;23.124;2023-05-23T11:54:39;118349.16;;;-140.64;48.42
7930;BME280;4010;42.698;23.124;2023-05-23T11:57:08;118349.16;;;-140.64;49.25
7930;BME280;4010;42.698;23.124;2023-05-23T11:59:35;118349.16;;;-140.64;54.01
7930;BME280;4010;42.698;23.124;2023-05-23T12:02:02;118349.16;;;-140.64;47.87
7930;BME280;4010;42.698;23.124;2023-05-23T12:04:29;118349.16;;;-140.64;48.29
7930;BME280;4010;42.698;23.124;2023-05-23T12:06:55;118349.16;;;-140.64;46.12
7930;BME280;4010;42.698;23.124;2023-05-23T12:09:22;118349.16;;;-140.64;45.95
7930;BME280;4010;42.698;23.124;2023-05-23T12:11:50;118349.16;;;-140.64;46.11
7930;BME280;4010;42.698;23.124;2023-05-23T12:14:18;118349.16;;;-140.64;46.56
7930;BME280;4010;42.698;23.124;2023-05-23T12:16:45;118349.16;;;-140.64;46.68
7930;BME280;4010;42.698;23.124;2023-05-23T12:19:12;118349.16;;;-140.64;47.08
7930;BME280;4010;42.698;23.124;2023-05-23T12:21:41;118349.16;;;-140.64;47.46
7930;BME280;4010;42.698;23.124;2023-05-23T12:24:15;118349.16;;;-140.64;46.70
7930;BME280;4010;42.698;23.124;2023-05-23T12:26:49;118349.16;;;-140.64;45.59
7930;BME280;4010;42.698;23.124;2023-05-23T12:29:27;118349.16;;;-140.64;49.66
7930;BME280;4010;42.698;23.124;2023-05-23T12:31:56;118349.16;;;-140.64;46.58
7930;BME280;4010;42.698;23.124;2023-05-23T12:34:23;118349.16;;;-140.64;46.21
7930;BME280;4010;42.698;23.124;2023-05-23T12:36:53;118349.16;;;-140.64;44.26
7930;BME280;4010;42.698;23.124;2023-05-23T12:39:23;118349.16;;;-140.64;45.56
7930;BME280;4010;42.698;23.124;2023-05-23T12:41:50;118349.16;;;-140.64;47.19
7930;BME280;4010;42.698;23.124;2023-05-23T12:44:17;118349.16;;;-140.64;43.92